sensor_id;sensor_type;location;lat;lon;timestamp;P1;durP1;ratioP1;P2;durP2;ratioP2
8094;SDS011;4090;49.270;8.696;2023-06-22T00:02:30;8.25;;;5.00;;
8094;SDS011;4090;49.270;8.696;2023-06-22T00:05:12;7.40;;;5.07;;
8094;SDS011;4090;49.270;8.696;2023-06-22T00:07:55;6.60;;;4.78;;
8094;SDS011;4090;49.270;8.696;2023-06-22T00:10:37;10.52;;;5.07;;
8094;SDS011;4090;49.270;8.696;2023-06-22T00:13:19;6.40;;;5.10;;
8094;SDS011;4090;49.270;8.696;2023-06-22T00:16:01;5.28;;;4.78;;
8094;SDS011;4090;49.270;8.696;2023-06-22T00:18:42;6.97;;;5.03;;
8094;SDS011;4090;49.270;8.696;2023-06-22T00:21:27;5.35;;;4.35;;
8094;SDS011;4090;49.270;8.696;2023-06-22T00:24:10;6.72;;;4.63;;
8094;SDS011;4090;49.270;8.696;2023-06-22T00:26:52;8.43;;;4.47;;
8094;SDS011;4090;49.270;8.696;2023-06-22T00:29:34;7.32;;;5.13;;
8094;SDS011;4090;49.270;8.696;2023-06-22T00:32:16;6.28;;;4.40;;
8094;SDS011;4090;49.270;8.696;2023-06-22T00:35:01;6.68;;;4.78;;
8094;SDS011;4090;49.270;8.696;2023-06-22T00:37:44;5.63;;;4.78;;
8094;SDS011;4090;49.270;8.696;2023-06-22T00:40:27;6.57;;;4.72;;
8094;SDS011;4090;49.270;8.696;2023-06-22T00:43:09;6.30;;;5.10;;
8094;SDS011;4090;49.270;8.696;2023-06-22T00:45:51;6.95;;;4.80;;
8094;SDS011;4090;49.270;8.696;2023-06-22T00:48:33;7.40;;;4.57;;
8094;SDS011;4090;49.270;8.696;2023-06-22T00:51:17;5.63;;;4.50;;
8094;SDS011;4090;49.270;8.696;2023-06-22T00:54:00;6.35;;;5.05;;
8094;SDS011;4090;49.270;8.696;2023-06-22T00:56:43;6.70;;;4.38;;
8094;SDS011;4090;49.270;8.696;2023-06-22T00:59:26;18.88;;;6.28;;
8094;SDS011;4090;49.270;8.696;2023-06-22T01:02:08;21.88;;;7.43;;
8094;SDS011;4090;49.270;8.696;2023-06-22T01:04:50;16.05;;;6.95;;
8094;SDS011;4090;49.270;8.696;2023-06-22T01:07:34;12.82;;;5.97;;
8094;SDS011;4090;49.270;8.696;2023-06-22T01:10:21;10.55;;;5.70;;
8094;SDS011;4090;49.270;8.696;2023-06-22T01:13:16;10.23;;;6.55;;
8094;SDS011;4090;49.270;8.696;2023-06-22T01:16:05;10.05;;;6.18;;
8094;SDS011;4090;49.270;8.696;2023-06-22T01:18:53;7.43;;;5.35;;
8094;SDS011;4090;49.270;8.696;2023-06-22T01:21:38;11.73;;;5.68;;
8094;SDS011;4090;49.270;8.696;2023-06-22T01:24:22;8.13;;;5.63;;
8094;SDS011;4090;49.270;8.696;2023-06-22T01:27:09;9.43;;;5.60;;
8094;SDS011;4090;49.270;8.696;2023-06-22T01:30:04;10.60;;;5.82;;
8094;SDS011;4090;49.270;8.696;2023-06-22T01:32:49;9.63;;;5.55;;
8094;SDS011;4090;49.270;8.696;2023-06-22T01:35:32;10.43;;;5.90;;
8094;SDS011;4090;49.270;8.696;2023-06-22T01:38:15;8.35;;;5.70;;
8094;SDS011;4090;49.270;8.696;2023-06-22T01:40:57;9.18;;;5.97;;
8094;SDS011;4090;49.270;8.696;2023-06-22T01:43:39;8.70;;;5.93;;
8094;SDS011;4090;49.270;8.696;2023-06-22T01:46:24;11.80;;;6.10;;
8094;SDS011;4090;49.270;8.696;2023-06-22T01:49:06;7.93;;;5.55;;
8094;SDS011;4090;49.270;8.696;2023-06-22T01:51:49;12.13;;;7.18;;
8094;SDS011;4090;49.270;8.696;2023-06-22T01:54:31;8.27;;;6.25;;
8094;SDS011;4090;49.270;8.696;2023-06-22T01:57:13;9.90;;;6.10;;
8094;SDS011;4090;49.270;8.696;2023-06-22T01:59:58;8.48;;;5.85;;
8094;SDS011;4090;49.270;8.696;2023-06-22T02:02:44;9.65;;;5.70;;
8094;SDS011;4090;49.270;8.696;2023-06-22T02:05:31;10.02;;;6.22;;
8094;SDS011;4090;49.270;8.696;2023-06-22T02:08:17;7.75;;;5.88;;
8094;SDS011;4090;49.270;8.696;2023-06-22T02:11:02;11.52;;;6.65;;
8094;SDS011;4090;49.270;8.696;2023-06-22T02:13:44;9.48;;;5.82;;
8094;SDS011;4090;49.270;8.696;2023-06-22T02:16:28;9.98;;;6.50;;
8094;SDS011;4090;49.270;8.696;2023-06-22T02:19:13;8.43;;;6.30;;
8094;SDS011;4090;49.270;8.696;2023-06-22T02:21:56;8.10;;;6.50;;
8094;SDS011;4090;49.270;8.696;2023-06-22T02:24:38;8.75;;;6.15;;
8094;SDS011;4090;49.270;8.696;2023-06-22T02:27:20;9.43;;;5.85;;
8094;SDS011;4090;49.270;8.696;2023-06-22T02:30:02;8.38;;;6.32;;
8094;SDS011;4090;49.270;8.696;2023-06-22T02:32:45;7.93;;;5.97;;
8094;SDS011;4090;49.270;8.696;2023-06-22T02:35:31;10.43;;;6.07;;
8094;SDS011;4090;49.270;8.696;2023-06-22T02:38:15;9.50;;;6.20;;
8094;SDS011;4090;49.270;8.696;2023-06-22T02:40:58;8.48;;;5.78;;
8094;SDS011;4090;49.270;8.696;2023-06-22T02:43:40;8.65;;;6.13;;
8094;SDS011;4090;49.270;8.696;2023-06-22T02:46:22;11.07;;;6.20;;
8094;SDS011;4090;49.270;8.696;2023-06-22T02:49:04;10.73;;;6.15;;
8094;SDS011;4090;49.270;8.696;2023-06-22T02:51:48;8.18;;;5.68;;
8094;SDS011;4090;49.270;8.696;2023-06-22T02:54:33;9.00;;;6.10;;
8094;SDS011;4090;49.270;8.696;2023-06-22T02:57:15;10.50;;;5.93;;
8094;SDS011;4090;49.270;8.696;2023-06-22T02:59:59;10.63;;;6.47;;
8094;SDS011;4090;49.270;8.696;2023-06-22T03:02:41;7.60;;;5.75;;
8094;SDS011;4090;49.270;8.696;2023-06-22T03:05:23;8.63;;;5.60;;
8094;SDS011;4090;49.270;8.696;2023-06-22T03:08:06;7.82;;;6.07;;
8094;SDS011;4090;49.270;8.696;2023-06-22T03:10:49;9.73;;;6.07;;
8094;SDS011;4090;49.270;8.696;2023-06-22T03:13:31;10.23;;;6.10;;
8094;SDS011;4090;49.270;8.696;2023-06-22T03:16:13;9.10;;;5.95;;
8094;SDS011;4090;49.270;8.696;2023-06-22T03:18:55;7.60;;;5.97;;
8094;SDS011;4090;49.270;8.696;2023-06-22T03:21:37;12.40;;;7.07;;
8094;SDS011;4090;49.270;8.696;2023-06-22T03:24:20;7.72;;;6.13;;
8094;SDS011;4090;49.270;8.696;2023-06-22T03:27:03;8.77;;;6.22;;
8094;SDS011;4090;49.270;8.696;2023-06-22T03:29:47;8.18;;;6.13;;
8094;SDS011;4090;49.270;8.696;2023-06-22T03:32:29;8.80;;;6.43;;
8094;SDS011;4090;49.270;8.696;2023-06-22T03:35:12;9.27;;;6.18;;
8094;SDS011;4090;49.270;8.696;2023-06-22T03:37:54;6.85;;;5.95;;
8094;SDS011;4090;49.270;8.696;2023-06-22T03:40:37;9.00;;;5.60;;
8094;SDS011;4090;49.270;8.696;2023-06-22T03:43:19;8.98;;;5.90;;
8094;SDS011;4090;49.270;8.696;2023-06-22T03:46:01;7.65;;;5.95;;
8094;SDS011;4090;49.270;8.696;2023-06-22T03:48:44;10.52;;;5.82;;
8094;SDS011;4090;49.270;8.696;2023-06-22T03:51:25;8.68;;;6.40;;
8094;SDS011;4090;49.270;8.696;2023-06-22T03:54:08;7.28;;;5.55;;
8094;SDS011;4090;49.270;8.696;2023-06-22T03:56:51;9.27;;;5.82;;
8094;SDS011;4090;49.270;8.696;2023-06-22T03:59:33;8.77;;;6.00;;
8094;SDS011;4090;49.270;8.696;2023-06-22T04:02:15;9.93;;;5.75;;
8094;SDS011;4090;49.270;8.696;2023-06-22T04:04:57;6.85;;;5.60;;
8094;SDS011;4090;49.270;8.696;2023-06-22T04:07:39;8.55;;;6.25;;
8094;SDS011;4090;49.270;8.696;2023-06-22T04:10:21;10.63;;;6.00;;
8094;SDS011;4090;49.270;8.696;2023-06-22T04:13:04;8.90;;;5.90;;
8094;SDS011;4090;49.270;8.696;2023-06-22T04:15:46;8.60;;;5.95;;
8094;SDS011;4090;49.270;8.696;2023-06-22T04:18:28;9.77;;;6.57;;
8094;SDS011;4090;49.270;8.696;2023-06-22T04:21:10;7.15;;;5.70;;
8094;SDS011;4090;49.270;8.696;2023-06-22T04:23:52;11.98;;;5.82;;
8094;SDS011;4090;49.270;8.696;2023-06-22T04:26:34;11.18;;;6.22;;
8094;SDS011;4090;49.270;8.696;2023-06-22T04:29:18;8.68;;;6.25;;
8094;SDS011;4090;49.270;8.696;2023-06-22T04:32:00;8.15;;;6.22;;
8094;SDS011;4090;49.270;8.696;2023-06-22T04:34:45;8.30;;;6.57;;
8094;SDS011;4090;49.270;8.696;2023-06-22T04:37:27;9.05;;;5.85;;
8094;SDS011;4090;49.270;8.696;2023-06-22T04:40:09;12.60;;;6.50;;
8094;SDS011;4090;49.270;8.696;2023-06-22T04:42:53;8.18;;;6.22;;
8094;SDS011;4090;49.270;8.696;2023-06-22T04:45:36;8.68;;;6.70;;
8094;SDS011;4090;49.270;8.696;2023-06-22T04:48:18;7.68;;;5.88;;
8094;SDS011;4090;49.270;8.696;2023-06-22T04:51:01;8.18;;;6.20;;
8094;SDS011;4090;49.270;8.696;2023-06-22T04:53:44;9.43;;;5.93;;
8094;SDS011;4090;49.270;8.696;2023-06-22T04:56:26;7.40;;;5.68;;
8094;SDS011;4090;49.270;8.696;2023-06-22T04:59:09;10.10;;;6.28;;
8094;SDS011;4090;49.270;8.696;2023-06-22T05:01:54;9.77;;;6.03;;
8094;SDS011;4090;49.270;8.696;2023-06-22T05:04:36;9.23;;;6.13;;
8094;SDS011;4090;49.270;8.696;2023-06-22T05:07:19;10.93;;;6.43;;
8094;SDS011;4090;49.270;8.696;2023-06-22T05:10:01;10.73;;;6.65;;
8094;SDS011;4090;49.270;8.696;2023-06-22T05:12:43;10.23;;;6.63;;
8094;SDS011;4090;49.270;8.696;2023-06-22T05:15:25;10.77;;;6.57;;
8094;SDS011;4090;49.270;8.696;2023-06-22T05:18:12;10.60;;;6.50;;
8094;SDS011;4090;49.270;8.696;2023-06-22T05:20:54;9.55;;;7.03;;
8094;SDS011;4090;49.270;8.696;2023-06-22T05:23:35;9.73;;;7.00;;
8094;SDS011;4090;49.270;8.696;2023-06-22T05:26:17;11.27;;;7.05;;
8094;SDS011;4090;49.270;8.696;2023-06-22T05:28:59;8.90;;;6.70;;
8094;SDS011;4090;49.270;8.696;2023-06-22T05:31:42;9.05;;;7.30;;
8094;SDS011;4090;49.270;8.696;2023-06-22T05:34:26;8.60;;;6.70;;
8094;SDS011;4090;49.270;8.696;2023-06-22T05:37:07;10.60;;;7.03;;
8094;SDS011;4090;49.270;8.696;2023-06-22T05:39:50;10.98;;;7.15;;
8094;SDS011;4090;49.270;8.696;2023-06-22T05:42:34;11.05;;;7.30;;
8094;SDS011;4090;49.270;8.696;2023-06-22T05:45:16;9.93;;;7.50;;
8094;SDS011;4090;49.270;8.696;2023-06-22T05:47:57;10.02;;;6.93;;
8094;SDS011;4090;49.270;8.696;2023-06-22T05:50:41;10.93;;;7.53;;
8094;SDS011;4090;49.270;8.696;2023-06-22T05:53:23;12.18;;;7.32;;
8094;SDS011;4090;49.270;8.696;2023-06-22T05:56:05;10.85;;;6.97;;
8094;SDS011;4090;49.270;8.696;2023-06-22T05:58:47;9.20;;;6.75;;
8094;SDS011;4090;49.270;8.696;2023-06-22T06:01:28;8.23;;;6.30;;
8094;SDS011;4090;49.270;8.696;2023-06-22T06:04:16;9.38;;;7.15;;
8094;SDS011;4090;49.270;8.696;2023-06-22T06:06:59;9.70;;;6.68;;
8094;SDS011;4090;49.270;8.696;2023-06-22T06:09:41;9.88;;;7.43;;
8094;SDS011;4090;49.270;8.696;2023-06-22T06:12:23;10.35;;;7.32;;
8094;SDS011;4090;49.270;8.696;2023-06-22T06:15:05;10.55;;;7.30;;
8094;SDS011;4090;49.270;8.696;2023-06-22T06:17:47;10.75;;;7.05;;
8094;SDS011;4090;49.270;8.696;2023-06-22T06:20:31;10.68;;;7.30;;
8094;SDS011;4090;49.270;8.696;2023-06-22T06:23:14;8.80;;;6.68;;
8094;SDS011;4090;49.270;8.696;2023-06-22T06:25:56;9.52;;;7.03;;
8094;SDS011;4090;49.270;8.696;2023-06-22T06:28:38;10.20;;;7.13;;
8094;SDS011;4090;49.270;8.696;2023-06-22T06:31:21;8.82;;;6.43;;
8094;SDS011;4090;49.270;8.696;2023-06-22T06:34:03;8.90;;;6.65;;
8094;SDS011;4090;49.270;8.696;2023-06-22T06:36:45;11.05;;;7.55;;
8094;SDS011;4090;49.270;8.696;2023-06-22T06:39:28;10.85;;;6.80;;
8094;SDS011;4090;49.270;8.696;2023-06-22T06:42:10;12.68;;;7.30;;
8094;SDS011;4090;49.270;8.696;2023-06-22T06:44:52;8.02;;;6.35;;
8094;SDS011;4090;49.270;8.696;2023-06-22T06:47:35;10.60;;;6.80;;
8094;SDS011;4090;49.270;8.696;2023-06-22T06:50:17;10.70;;;6.78;;
8094;SDS011;4090;49.270;8.696;2023-06-22T06:52:59;12.07;;;6.75;;
8094;SDS011;4090;49.270;8.696;2023-06-22T06:55:42;10.73;;;6.93;;
8094;SDS011;4090;49.270;8.696;2023-06-22T06:58:25;8.77;;;6.78;;
8094;SDS011;4090;49.270;8.696;2023-06-22T07:01:07;8.73;;;6.32;;
8094;SDS011;4090;49.270;8.696;2023-06-22T07:03:49;9.13;;;7.25;;
8094;SDS011;4090;49.270;8.696;2023-06-22T07:06:31;8.52;;;6.63;;
8094;SDS011;4090;49.270;8.696;2023-06-22T07:09:13;8.57;;;6.80;;
8094;SDS011;4090;49.270;8.696;2023-06-22T07:11:57;8.50;;;6.55;;
8094;SDS011;4090;49.270;8.696;2023-06-22T07:14:39;9.88;;;7.15;;
8094;SDS011;4090;49.270;8.696;2023-06-22T07:17:20;11.10;;;6.93;;
8094;SDS011;4090;49.270;8.696;2023-06-22T07:20:03;11.00;;;6.85;;
8094;SDS011;4090;49.270;8.696;2023-06-22T07:22:49;10.35;;;7.10;;
8094;SDS011;4090;49.270;8.696;2023-06-22T07:25:32;9.45;;;7.50;;
8094;SDS011;4090;49.270;8.696;2023-06-22T07:28:15;8.20;;;6.22;;
8094;SDS011;4090;49.270;8.696;2023-06-22T07:30:57;8.30;;;6.35;;
8094;SDS011;4090;49.270;8.696;2023-06-22T07:33:39;10.55;;;6.68;;
8094;SDS011;4090;49.270;8.696;2023-06-22T07:36:21;8.10;;;6.45;;
8094;SDS011;4090;49.270;8.696;2023-06-22T07:39:03;11.25;;;6.78;;
8094;SDS011;4090;49.270;8.696;2023-06-22T07:41:45;8.32;;;5.60;;
8094;SDS011;4090;49.270;8.696;2023-06-22T07:44:28;11.55;;;6.60;;
8094;SDS011;4090;49.270;8.696;2023-06-22T07:47:10;10.52;;;6.60;;
8094;SDS011;4090;49.270;8.696;2023-06-22T07:49:52;10.68;;;7.28;;
8094;SDS011;4090;49.270;8.696;2023-06-22T07:52:35;8.88;;;6.60;;
8094;SDS011;4090;49.270;8.696;2023-06-22T07:55:17;10.13;;;6.50;;
8094;SDS011;4090;49.270;8.696;2023-06-22T07:58:00;10.00;;;6.43;;
8094;SDS011;4090;49.270;8.696;2023-06-22T08:00:43;9.35;;;6.00;;
8094;SDS011;4090;49.270;8.696;2023-06-22T08:03:25;10.13;;;6.53;;
8094;SDS011;4090;49.270;8.696;2023-06-22T08:06:07;11.98;;;6.70;;
8094;SDS011;4090;49.270;8.696;2023-06-22T08:08:50;9.45;;;6.40;;
8094;SDS011;4090;49.270;8.696;2023-06-22T08:11:34;8.75;;;6.00;;
8094;SDS011;4090;49.270;8.696;2023-06-22T08:14:16;10.68;;;6.18;;
8094;SDS011;4090;49.270;8.696;2023-06-22T08:16:59;9.60;;;6.90;;
8094;SDS011;4090;49.270;8.696;2023-06-22T08:19:41;9.07;;;6.10;;
8094;SDS011;4090;49.270;8.696;2023-06-22T08:22:23;9.55;;;5.55;;
8094;SDS011;4090;49.270;8.696;2023-06-22T08:25:05;8.85;;;5.47;;
8094;SDS011;4090;49.270;8.696;2023-06-22T08:27:48;9.02;;;6.20;;
8094;SDS011;4090;49.270;8.696;2023-06-22T08:30:30;8.07;;;5.95;;
8094;SDS011;4090;49.270;8.696;2023-06-22T08:33:13;8.32;;;6.18;;
8094;SDS011;4090;49.270;8.696;2023-06-22T08:35:55;11.60;;;6.15;;
8094;SDS011;4090;49.270;8.696;2023-06-22T08:38:37;8.73;;;6.80;;
8094;SDS011;4090;49.270;8.696;2023-06-22T08:41:19;7.25;;;6.13;;
8094;SDS011;4090;49.270;8.696;2023-06-22T08:44:01;9.95;;;6.43;;
8094;SDS011;4090;49.270;8.696;2023-06-22T08:46:44;10.02;;;6.38;;
8094;SDS011;4090;49.270;8.696;2023-06-22T08:49:27;7.95;;;5.68;;
8094;SDS011;4090;49.270;8.696;2023-06-22T08:52:09;9.55;;;5.93;;
8094;SDS011;4090;49.270;8.696;2023-06-22T08:54:51;9.02;;;5.85;;
8094;SDS011;4090;49.270;8.696;2023-06-22T08:57:33;6.47;;;5.35;;
8094;SDS011;4090;49.270;8.696;2023-06-22T09:00:15;9.05;;;5.55;;
8094;SDS011;4090;49.270;8.696;2023-06-22T09:03:00;10.07;;;6.15;;
8094;SDS011;4090;49.270;8.696;2023-06-22T09:05:43;8.57;;;5.70;;
8094;SDS011;4090;49.270;8.696;2023-06-22T09:08:26;8.57;;;6.05;;
8094;SDS011;4090;49.270;8.696;2023-06-22T09:11:08;9.45;;;5.63;;
8094;SDS011;4090;49.270;8.696;2023-06-22T09:13:50;9.52;;;5.82;;
8094;SDS011;4090;49.270;8.696;2023-06-22T09:16:32;6.60;;;5.50;;
8094;SDS011;4090;49.270;8.696;2023-06-22T09:19:15;9.98;;;5.82;;
8094;SDS011;4090;49.270;8.696;2023-06-22T09:21:58;9.18;;;6.22;;
8094;SDS011;4090;49.270;8.696;2023-06-22T09:24:40;9.68;;;6.25;;
8094;SDS011;4090;49.270;8.696;2023-06-22T09:27:22;11.75;;;6.15;;
8094;SDS011;4090;49.270;8.696;2023-06-22T09:30:04;8.07;;;5.68;;
8094;SDS011;4090;49.270;8.696;2023-06-22T09:32:47;10.45;;;5.45;;
8094;SDS011;4090;49.270;8.696;2023-06-22T09:35:28;9.55;;;6.13;;
8094;SDS011;4090;49.270;8.696;2023-06-22T09:38:12;9.05;;;5.63;;
8094;SDS011;4090;49.270;8.696;2023-06-22T09:40:54;9.02;;;5.35;;
8094;SDS011;4090;49.270;8.696;2023-06-22T09:43:35;8.70;;;5.22;;
8094;SDS011;4090;49.270;8.696;2023-06-22T09:46:17;7.40;;;5.40;;
8094;SDS011;4090;49.270;8.696;2023-06-22T09:49:02;6.53;;;5.35;;
8094;SDS011;4090;49.270;8.696;2023-06-22T09:51:43;10.35;;;5.38;;
8094;SDS011;4090;49.270;8.696;2023-06-22T09:54:27;9.05;;;5.25;;
8094;SDS011;4090;49.270;8.696;2023-06-22T09:57:09;11.45;;;6.18;;
8094;SDS011;4090;49.270;8.696;2023-06-22T09:59:50;7.15;;;5.53;;
8094;SDS011;4090;49.270;8.696;2023-06-22T10:02:32;10.52;;;5.60;;
8094;SDS011;4090;49.270;8.696;2023-06-22T10:05:14;7.90;;;5.35;;
8094;SDS011;4090;49.270;8.696;2023-06-22T10:07:56;9.07;;;5.35;;
8094;SDS011;4090;49.270;8.696;2023-06-22T10:10:39;8.55;;;5.43;;
8094;SDS011;4090;49.270;8.696;2023-06-22T10:13:21;7.93;;;5.55;;
8094;SDS011;4090;49.270;8.696;2023-06-22T10:16:03;9.88;;;5.60;;
8094;SDS011;4090;49.270;8.696;2023-06-22T10:18:45;7.63;;;5.57;;
8094;SDS011;4090;49.270;8.696;2023-06-22T10:21:27;10.73;;;5.60;;
8094;SDS011;4090;49.270;8.696;2023-06-22T10:24:09;7.60;;;5.32;;
8094;SDS011;4090;49.270;8.696;2023-06-22T10:26:52;9.15;;;6.00;;
8094;SDS011;4090;49.270;8.696;2023-06-22T10:29:34;9.73;;;5.88;;
8094;SDS011;4090;49.270;8.696;2023-06-22T10:32:16;9.77;;;5.45;;
8094;SDS011;4090;49.270;8.696;2023-06-22T10:34:58;10.65;;;5.53;;
8094;SDS011;4090;49.270;8.696;2023-06-22T10:37:40;10.00;;;5.47;;
8094;SDS011;4090;49.270;8.696;2023-06-22T10:40:23;10.63;;;5.63;;
8094;SDS011;4090;49.270;8.696;2023-06-22T10:43:06;9.05;;;5.07;;
8094;SDS011;4090;49.270;8.696;2023-06-22T10:45:48;12.20;;;5.55;;
8094;SDS011;4090;49.270;8.696;2023-06-22T10:48:30;8.70;;;5.22;;
8094;SDS011;4090;49.270;8.696;2023-06-22T10:51:12;7.10;;;4.60;;
8094;SDS011;4090;49.270;8.696;2023-06-22T10:53:54;8.93;;;5.03;;
8094;SDS011;4090;49.270;8.696;2023-06-22T10:56:36;11.13;;;5.78;;
8094;SDS011;4090;49.270;8.696;2023-06-22T10:59:19;10.10;;;5.65;;
8094;SDS011;4090;49.270;8.696;2023-06-22T11:02:01;10.23;;;5.70;;
8094;SDS011;4090;49.270;8.696;2023-06-22T11:04:43;10.23;;;5.28;;
8094;SDS011;4090;49.270;8.696;2023-06-22T11:07:26;10.43;;;5.05;;
8094;SDS011;4090;49.270;8.696;2023-06-22T11:10:09;11.35;;;5.68;;
8094;SDS011;4090;49.270;8.696;2023-06-22T11:12:51;7.40;;;5.20;;
8094;SDS011;4090;49.270;8.696;2023-06-22T11:15:34;10.80;;;5.70;;
8094;SDS011;4090;49.270;8.696;2023-06-22T11:18:17;8.00;;;5.20;;
8094;SDS011;4090;49.270;8.696;2023-06-22T11:20:58;6.88;;;5.32;;
8094;SDS011;4090;49.270;8.696;2023-06-22T11:23:41;8.95;;;5.53;;
8094;SDS011;4090;49.270;8.696;2023-06-22T11:26:23;11.38;;;5.35;;
8094;SDS011;4090;49.270;8.696;2023-06-22T11:29:07;10.02;;;5.53;;
8094;SDS011;4090;49.270;8.696;2023-06-22T11:31:50;9.38;;;4.97;;
8094;SDS011;4090;49.270;8.696;2023-06-22T11:34:32;8.60;;;5.15;;
8094;SDS011;4090;49.270;8.696;2023-06-22T11:37:14;9.45;;;5.28;;
8094;SDS011;4090;49.270;8.696;2023-06-22T11:39:56;8.63;;;5.93;;
8094;SDS011;4090;49.270;8.696;2023-06-22T11:42:38;8.52;;;5.40;;
8094;SDS011;4090;49.270;8.696;2023-06-22T11:45:20;9.73;;;5.28;;
8094;SDS011;4090;49.270;8.696;2023-06-22T11:48:03;11.02;;;5.22;;
8094;SDS011;4090;49.270;8.696;2023-06-22T11:50:46;10.80;;;5.40;;
8094;SDS011;4090;49.270;8.696;2023-06-22T11:53:28;9.25;;;5.32;;
8094;SDS011;4090;49.270;8.696;2023-06-22T11:56:10;16.75;;;5.35;;
8094;SDS011;4090;49.270;8.696;2023-06-22T11:58:52;8.68;;;5.18;;
8094;SDS011;4090;49.270;8.696;2023-06-22T12:01:34;10.07;;;5.28;;
8094;SDS011;4090;49.270;8.696;2023-06-22T12:04:17;12.50;;;5.28;;
8094;SDS011;4090;49.270;8.696;2023-06-22T12:06:59;8.18;;;5.25;;
8094;SDS011;4090;49.270;8.696;2023-06-22T12:09:42;8.38;;;5.70;;
8094;SDS011;4090;49.270;8.696;2023-06-22T12:12:24;11.10;;;5.07;;
8094;SDS011;4090;49.270;8.696;2023-06-22T12:15:06;9.88;;;5.15;;
8094;SDS011;4090;49.270;8.696;2023-06-22T12:17:49;12.20;;;5.70;;
8094;SDS011;4090;49.270;8.696;2023-06-22T12:20:32;10.90;;;5.40;;
8094;SDS011;4090;49.270;8.696;2023-06-22T12:23:14;9.13;;;5.20;;
8094;SDS011;4090;49.270;8.696;2023-06-22T12:25:57;8.13;;;5.00;;
8094;SDS011;4090;49.270;8.696;2023-06-22T12:28:42;9.68;;;5.47;;
8094;SDS011;4090;49.270;8.696;2023-06-22T12:31:24;7.88;;;5.18;;
8094;SDS011;4090;49.270;8.696;2023-06-22T12:34:06;9.40;;;5.82;;
8094;SDS011;4090;49.270;8.696;2023-06-22T12:36:49;9.25;;;5.75;;
8094;SDS011;4090;49.270;8.696;2023-06-22T12:39:31;7.18;;;4.70;;
8094;SDS011;4090;49.270;8.696;2023-06-22T12:42:13;9.48;;;5.45;;
8094;SDS011;4090;49.270;8.696;2023-06-22T12:44:56;9.27;;;5.10;;
8094;SDS011;4090;49.270;8.696;2023-06-22T12:47:37;7.80;;;5.30;;
8094;SDS011;4090;49.270;8.696;2023-06-22T12:50:19;11.25;;;5.72;;
8094;SDS011;4090;49.270;8.696;2023-06-22T12:53:02;7.10;;;5.13;;
8094;SDS011;4090;49.270;8.696;2023-06-22T12:55:46;10.52;;;5.50;;
8094;SDS011;4090;49.270;8.696;2023-06-22T12:58:28;9.93;;;5.43;;
8094;SDS011;4090;49.270;8.696;2023-06-22T13:01:10;7.00;;;4.75;;
8094;SDS011;4090;49.270;8.696;2023-06-22T13:03:51;8.85;;;5.60;;
8094;SDS011;4090;49.270;8.696;2023-06-22T13:06:33;10.38;;;5.30;;
8094;SDS011;4090;49.270;8.696;2023-06-22T13:09:17;11.23;;;5.80;;
8094;SDS011;4090;49.270;8.696;2023-06-22T13:12:00;9.00;;;4.90;;
8094;SDS011;4090;49.270;8.696;2023-06-22T13:14:41;8.93;;;5.97;;
8094;SDS011;4090;49.270;8.696;2023-06-22T13:17:24;10.88;;;5.53;;
8094;SDS011;4090;49.270;8.696;2023-06-22T13:20:06;9.73;;;5.47;;
8094;SDS011;4090;49.270;8.696;2023-06-22T13:22:48;8.60;;;5.40;;
8094;SDS011;4090;49.270;8.696;2023-06-22T13:25:31;12.93;;;6.18;;
8094;SDS011;4090;49.270;8.696;2023-06-22T13:28:13;10.77;;;5.47;;
8094;SDS011;4090;49.270;8.696;2023-06-22T13:30:56;14.55;;;6.30;;
8094;SDS011;4090;49.270;8.696;2023-06-22T13:33:38;11.15;;;5.53;;
8094;SDS011;4090;49.270;8.696;2023-06-22T13:36:20;8.55;;;5.43;;
8094;SDS011;4090;49.270;8.696;2023-06-22T13:39:03;11.55;;;5.72;;
8094;SDS011;4090;49.270;8.696;2023-06-22T13:41:46;8.82;;;5.38;;
8094;SDS011;4090;49.270;8.696;2023-06-22T13:44:28;11.23;;;5.20;;
8094;SDS011;4090;49.270;8.696;2023-06-22T13:47:10;9.02;;;5.22;;
8094;SDS011;4090;49.270;8.696;2023-06-22T13:49:52;13.63;;;5.82;;
8094;SDS011;4090;49.270;8.696;2023-06-22T13:52:34;10.23;;;5.75;;
8094;SDS011;4090;49.270;8.696;2023-06-22T13:55:16;12.32;;;6.10;;
8094;SDS011;4090;49.270;8.696;2023-06-22T13:58:02;10.43;;;5.75;;
8094;SDS011;4090;49.270;8.696;2023-06-22T14:00:44;7.57;;;6.00;;
8094;SDS011;4090;49.270;8.696;2023-06-22T14:03:26;11.52;;;6.25;;
8094;SDS011;4090;49.270;8.696;2023-06-22T14:06:08;10.13;;;5.63;;
8094;SDS011;4090;49.270;8.696;2023-06-22T14:08:51;11.63;;;5.95;;
8094;SDS011;4090;49.270;8.696;2023-06-22T14:11:33;11.52;;;6.07;;
8094;SDS011;4090;49.270;8.696;2023-06-22T14:14:16;11.30;;;6.00;;
8094;SDS011;4090;49.270;8.696;2023-06-22T14:16:58;15.63;;;6.57;;
8094;SDS011;4090;49.270;8.696;2023-06-22T14:19:40;10.85;;;5.63;;
8094;SDS011;4090;49.270;8.696;2023-06-22T14:22:22;10.90;;;5.70;;
8094;SDS011;4090;49.270;8.696;2023-06-22T14:25:04;10.88;;;6.70;;
8094;SDS011;4090;49.270;8.696;2023-06-22T14:27:47;13.88;;;6.65;;
8094;SDS011;4090;49.270;8.696;2023-06-22T14:30:30;9.88;;;6.18;;
8094;SDS011;4090;49.270;8.696;2023-06-22T14:33:12;10.38;;;5.80;;
8094;SDS011;4090;49.270;8.696;2023-06-22T14:35:54;13.38;;;6.53;;
8094;SDS011;4090;49.270;8.696;2023-06-22T14:38:36;11.50;;;6.00;;
8094;SDS011;4090;49.270;8.696;2023-06-22T14:41:18;8.77;;;5.53;;
8094;SDS011;4090;49.270;8.696;2023-06-22T14:44:01;11.70;;;6.53;;
8094;SDS011;4090;49.270;8.696;2023-06-22T14:46:44;11.68;;;5.95;;
8094;SDS011;4090;49.270;8.696;2023-06-22T14:49:26;10.73;;;6.05;;
8094;SDS011;4090;49.270;8.696;2023-06-22T14:52:07;16.73;;;6.95;;
8094;SDS011;4090;49.270;8.696;2023-06-22T14:54:49;11.32;;;6.55;;
8094;SDS011;4090;49.270;8.696;2023-06-22T14:57:32;11.52;;;6.68;;
8094;SDS011;4090;49.270;8.696;2023-06-22T15:00:14;12.07;;;6.45;;
8094;SDS011;4090;49.270;8.696;2023-06-22T15:02:58;12.38;;;6.30;;
8094;SDS011;4090;49.270;8.696;2023-06-22T15:05:40;10.63;;;6.03;;
8094;SDS011;4090;49.270;8.696;2023-06-22T15:08:22;9.70;;;6.55;;
8094;SDS011;4090;49.270;8.696;2023-06-22T15:11:04;12.13;;;6.47;;
8094;SDS011;4090;49.270;8.696;2023-06-22T15:13:46;11.25;;;6.13;;
8094;SDS011;4090;49.270;8.696;2023-06-22T15:16:28;11.38;;;6.07;;
8094;SDS011;4090;49.270;8.696;2023-06-22T15:19:11;10.65;;;6.28;;
8094;SDS011;4090;49.270;8.696;2023-06-22T15:21:53;15.05;;;6.35;;
8094;SDS011;4090;49.270;8.696;2023-06-22T15:24:35;10.38;;;6.22;;
8094;SDS011;4090;49.270;8.696;2023-06-22T15:27:17;11.65;;;6.65;;
8094;SDS011;4090;49.270;8.696;2023-06-22T15:29:59;14.90;;;6.20;;
8094;SDS011;4090;49.270;8.696;2023-06-22T15:32:42;13.38;;;6.60;;
8094;SDS011;4090;49.270;8.696;2023-06-22T15:35:26;15.88;;;6.32;;
8094;SDS011;4090;49.270;8.696;2023-06-22T15:38:07;11.88;;;6.43;;
8094;SDS011;4090;49.270;8.696;2023-06-22T15:40:49;11.35;;;6.18;;
8094;SDS011;4090;49.270;8.696;2023-06-22T15:43:31;14.50;;;6.30;;
8094;SDS011;4090;49.270;8.696;2023-06-22T15:46:13;9.38;;;6.18;;
8094;SDS011;4090;49.270;8.696;2023-06-22T15:48:57;14.38;;;6.72;;
8094;SDS011;4090;49.270;8.696;2023-06-22T15:51:40;12.70;;;6.00;;
8094;SDS011;4090;49.270;8.696;2023-06-22T15:54:22;16.90;;;6.55;;
8094;SDS011;4090;49.270;8.696;2023-06-22T15:57:04;13.70;;;5.97;;
8094;SDS011;4090;49.270;8.696;2023-06-22T15:59:46;11.70;;;6.65;;
8094;SDS011;4090;49.270;8.696;2023-06-22T16:02:28;9.40;;;5.55;;
8094;SDS011;4090;49.270;8.696;2023-06-22T16:05:11;13.68;;;6.28;;
8094;SDS011;4090;49.270;8.696;2023-06-22T16:07:55;11.88;;;6.18;;
8094;SDS011;4090;49.270;8.696;2023-06-22T16:10:38;11.93;;;6.70;;
8094;SDS011;4090;49.270;8.696;2023-06-22T16:13:20;11.27;;;5.82;;
8094;SDS011;4090;49.270;8.696;2023-06-22T16:16:02;11.25;;;6.20;;
8094;SDS011;4090;49.270;8.696;2023-06-22T16:18:44;15.10;;;7.35;;
8094;SDS011;4090;49.270;8.696;2023-06-22T16:21:27;12.38;;;6.22;;
8094;SDS011;4090;49.270;8.696;2023-06-22T16:24:10;15.15;;;7.22;;
8094;SDS011;4090;49.270;8.696;2023-06-22T16:26:52;11.05;;;6.30;;
8094;SDS011;4090;49.270;8.696;2023-06-22T16:29:35;9.65;;;5.50;;
8094;SDS011;4090;49.270;8.696;2023-06-22T16:32:19;11.60;;;6.68;;
8094;SDS011;4090;49.270;8.696;2023-06-22T16:35:00;11.13;;;6.18;;
8094;SDS011;4090;49.270;8.696;2023-06-22T16:37:42;12.63;;;6.45;;
8094;SDS011;4090;49.270;8.696;2023-06-22T16:40:26;12.52;;;6.57;;
8094;SDS011;4090;49.270;8.696;2023-06-22T16:43:07;15.52;;;6.90;;
8094;SDS011;4090;49.270;8.696;2023-06-22T16:45:49;11.05;;;6.30;;